Time;durP1;ratioP1;P1;durP2;ratioP2;P2;SDS_P1;SDS_P2;PMS_P1;PMS_P2;Temp;Humidity;BMP_temperature;BMP_pressure;BME280_temperature;BME280_humidity;BME280_pressure;Samples;Min_cycle;Max_cycle;Signal;HPM_P1;HPM_P2
2021/06/11 00:02:01;;;;;;;3.33;2.58;;;;;;;29.67;28.84;94352.47;5015530;28;20050;-46
2021/06/11 00:04:28;;;;;;;2.90;2.63;;;;;;;29.32;29.32;94351.78;5018527;28;20603;-47
2021/06/11 00:06:56;;;;;;;7.43;2.83;;;;;;;29.66;28.99;94359.00;5014786;28;20057;-47
2021/06/11 00:09:23;;;;;;;3.22;2.75;;;;;;;29.65;28.85;94354.78;5014190;28;20053;-46
2021/06/11 00:11:50;;;;;;;4.90;2.67;;;;;;;29.63;28.73;94357.88;5015185;28;20064;-50
2021/06/11 00:14:18;;;;;;;4.75;2.88;;;;;;;29.52;28.98;94361.91;5014956;28;20061;-46
2021/06/11 00:16:45;;;;;;;4.68;3.05;;;;;;;29.81;28.66;94352.22;5015475;28;20046;-47
2021/06/11 00:19:12;;;;;;;4.53;2.80;;;;;;;30.08;28.13;94347.56;5014608;28;20053;-46
2021/06/11 00:21:39;;;;;;;3.35;2.85;;;;;;;29.62;28.83;94345.59;5017537;28;20053;-48
2021/06/11 00:24:07;;;;;;;5.55;3.30;;;;;;;29.00;29.35;94340.69;5035464;28;20049;-45
2021/06/11 00:26:34;;;;;;;4.07;3.10;;;;;;;29.32;29.07;94349.09;5024502;28;20376;-47
2021/06/11 00:29:01;;;;;;;3.63;3.10;;;;;;;28.83;29.74;94335.09;5015146;28;20057;-47
2021/06/11 00:31:28;;;;;;;5.18;2.97;;;;;;;29.00;29.48;94332.63;5015173;28;20048;-46
2021/06/11 00:33:55;;;;;;;4.53;2.90;;;;;;;28.95;29.66;94330.38;5015603;28;20049;-45
2021/06/11 00:36:22;;;;;;;3.42;3.10;;;;;;;29.32;29.08;94326.78;5020657;28;20109;-47
2021/06/11 00:38:49;;;;;;;3.20;2.83;;;;;;;29.42;28.66;94329.34;5015079;28;20495;-46
2021/06/11 00:41:16;;;;;;;4.35;3.30;;;;;;;29.46;28.45;94332.00;5016147;28;20074;-46
2021/06/11 00:43:44;;;;;;;3.53;3.08;;;;;;;29.09;29.33;94336.31;5015344;28;20057;-48
2021/06/11 00:46:12;;;;;;;4.22;3.05;;;;;;;29.15;29.33;94331.28;5014058;28;20053;-45
2021/06/11 00:48:39;;;;;;;4.47;2.72;;;;;;;28.93;29.26;94322.72;5015103;28;20503;-46
2021/06/11 00:51:06;;;;;;;3.45;3.05;;;;;;;29.05;29.22;94329.47;5027051;28;20053;-46
2021/06/11 00:53:33;;;;;;;3.47;3.08;;;;;;;29.16;29.20;94325.47;5034927;28;20045;-48
2021/06/11 00:56:00;;;;;;;3.75;3.17;;;;;;;29.13;29.01;94325.50;5027442;28;20046;-46
2021/06/11 00:58:28;;;;;;;3.20;2.90;;;;;;;29.13;29.05;94320.88;5015118;28;20042;-47
2021/06/11 01:00:55;;;;;;;3.65;3.00;;;;;;;28.94;29.35;94318.09;5014605;28;20049;-45
2021/06/11 01:03:22;;;;;;;5.72;3.00;;;;;;;29.33;28.81;94312.16;5014968;28;20054;-46
2021/06/11 01:05:49;;;;;;;5.50;3.05;;;;;;;28.93;28.93;94321.94;5014511;28;20056;-47
2021/06/11 01:08:17;;;;;;;3.10;2.80;;;;;;;29.15;29.02;94323.97;5014819;28;20050;-47
2021/06/11 01:10:45;;;;;;;3.70;2.70;;;;;;;28.37;29.75;94324.88;5031899;28;20045;-47
2021/06/11 01:13:17;;;;;;;5.05;3.10;;;;;;;28.73;29.27;94317.16;5030425;28;20060;-46
2021/06/11 01:15:48;;;;;;;3.85;3.10;;;;;;;29.18;28.62;94322.38;5029865;28;20384;-46
2021/06/11 01:18:16;;;;;;;5.82;3.03;;;;;;;28.43;29.56;94333.25;5013827;28;20049;-45
2021/06/11 01:20:43;;;;;;;3.45;3.00;;;;;;;28.54;29.60;94336.59;5022159;28;20049;-46
2021/06/11 01:24:01;;;;;;;4.10;2.90;;;;;;;28.55;29.38;94335.41;5034507;28;20460;-46
2021/06/11 01:26:38;;;;;;;4.30;2.97;;;;;;;28.61;29.37;94333.81;5001645;28;20053;-46
2021/06/11 01:29:08;;;;;;;3.03;2.80;;;;;;;28.56;29.42;94331.56;5032939;28;20045;-45
2021/06/11 01:31:37;;;;;;;5.22;3.38;;;;;;;28.55;29.45;94333.50;5019590;28;20053;-44
2021/06/11 01:34:28;;;;;;;5.88;3.30;;;;;;;28.38;29.52;94331.03;5030062;28;20390;-45
2021/06/11 01:37:07;;;;;;;3.33;2.67;;;;;;;28.22;29.82;94334.97;5048709;28;20401;-44
2021/06/11 01:39:35;;;;;;;3.80;3.03;;;;;;;28.67;29.35;94340.28;5026743;28;20049;-46
2021/06/11 01:42:02;;;;;;;4.13;3.20;;;;;;;28.74;29.15;94342.88;5013844;28;20376;-47
2021/06/11 01:44:31;;;;;;;9.65;3.63;;;;;;;28.40;29.45;94334.06;5030027;28;20471;-46
2021/06/11 01:47:00;;;;;;;5.85;2.90;;;;;;;28.39;29.48;94337.91;5029939;28;20054;-46
2021/06/11 01:49:28;;;;;;;4.40;2.80;;;;;;;28.45;29.64;94336.31;5029497;28;20053;-45
2021/06/11 01:51:58;;;;;;;2.85;2.65;;;;;;;28.82;29.22;94333.56;5034033;28;20050;-48
2021/06/11 01:54:25;;;;;;;3.25;2.65;;;;;;;28.70;29.22;94336.03;5033231;28;20061;-45
2021/06/11 01:56:53;;;;;;;4.07;3.20;;;;;;;28.90;28.77;94322.75;5023523;28;20062;-48
2021/06/11 01:59:20;;;;;;;4.50;2.97;;;;;;;28.81;28.83;94315.91;5013037;28;20403;-46
2021/06/11 02:01:48;;;;;;;4.32;2.95;;;;;;;28.52;29.45;94320.84;5029886;28;20056;-48
2021/06/11 02:04:15;;;;;;;3.03;2.72;;;;;;;28.92;28.55;94317.75;5030225;28;20050;-45
2021/06/11 02:06:43;;;;;;;4.82;3.08;;;;;;;28.47;29.50;94313.25;5031653;28;20045;-46
2021/06/11 02:09:12;;;;;;;4.05;2.95;;;;;;;28.80;28.69;94314.38;5035774;28;20056;-48
2021/06/11 02:11:41;;;;;;;4.68;2.92;;;;;;;28.66;28.92;94308.44;5037070;28;20337;-48
2021/06/11 02:14:13;;;;;;;3.63;2.78;;;;;;;28.79;28.94;94312.84;5033221;28;20053;-46
2021/06/11 02:16:40;;;;;;;5.20;2.60;;;;;;;28.48;29.09;94316.69;5018110;28;20042;-46
2021/06/11 02:19:08;;;;;;;4.10;2.95;;;;;;;28.37;29.32;94308.00;5021655;28;20049;-47
2021/06/11 02:21:36;;;;;;;3.33;2.88;;;;;;;28.68;28.91;94317.63;5018114;28;20045;-46
2021/06/11 02:24:03;;;;;;;3.67;2.90;;;;;;;28.52;29.01;94314.72;5036572;28;20360;-45
2021/06/11 02:26:31;;;;;;;4.63;3.25;;;;;;;28.75;28.97;94317.53;5036761;28;20049;-47
2021/06/11 02:28:58;;;;;;;4.15;3.05;;;;;;;28.91;28.23;94314.28;5036310;28;20057;-45
2021/06/11 02:31:25;;;;;;;3.47;3.15;;;;;;;28.66;28.67;94319.19;5017306;28;20053;-44
2021/06/11 02:33:53;;;;;;;5.25;3.08;;;;;;;28.32;29.39;94311.84;5017570;28;20364;-47
2021/06/11 02:36:20;;;;;;;6.10;3.00;;;;;;;28.45;29.63;94315.56;5021683;28;20378;-45
2021/06/11 02:38:47;;;;;;;4.57;3.20;;;;;;;28.07;29.78;94325.50;5017795;28;20053;-46
2021/06/11 02:41:21;;;;;;;5.15;3.10;;;;;;;27.73;30.30;94324.69;5021650;28;20041;-53
2021/06/11 02:43:50;;;;;;;4.38;3.20;;;;;;;28.53;29.10;94327.75;5033243;28;20049;-46
2021/06/11 02:47:06;;;;;;;4.40;3.38;;;;;;;28.59;28.88;94330.00;5017531;28;20118;-46
2021/06/11 02:49:37;;;;;;;5.18;3.60;;;;;;;28.00;29.79;94333.66;4980734;28;20454;-45
2021/06/11 02:52:07;;;;;;;6.20;3.72;;;;;;;28.43;29.21;94335.97;4965413;28;20046;-44
2021/06/11 02:54:36;;;;;;;6.07;4.05;;;;;;;28.17;29.46;94331.97;5007236;28;20056;-45
2021/06/11 02:57:16;;;;;;;7.45;3.50;;;;;;;28.50;28.87;94338.56;5036177;28;20060;-47
2021/06/11 02:59:47;;;;;;;4.43;3.58;;;;;;;28.37;29.34;94338.31;5031900;28;20054;-45
2021/06/11 03:02:26;;;;;;;4.82;3.60;;;;;;;28.60;28.98;94334.97;5032244;28;20046;-46
2021/06/11 03:04:55;;;;;;;5.03;3.53;;;;;;;28.72;28.71;94339.84;5018023;28;20053;-46
2021/06/11 03:07:28;;;;;;;7.45;4.10;;;;;;;28.39;29.42;94335.22;5036428;28;20056;-46
2021/06/11 03:09:58;;;;;;;5.72;3.70;;;;;;;28.38;29.30;94337.16;5029053;28;20050;-44
2021/06/11 03:12:26;;;;;;;6.18;4.07;;;;;;;28.11;29.63;94345.06;5016823;28;20045;-48
2021/06/11 03:14:54;;;;;;;5.80;3.92;;;;;;;28.22;29.42;94345.72;5032320;28;20053;-45
2021/06/11 03:17:25;;;;;;;4.45;3.78;;;;;;;27.87;30.37;94351.44;5017058;28;20046;-48
2021/06/11 03:19:55;;;;;;;6.50;4.28;;;;;;;28.33;29.71;94350.25;5015015;28;20141;-54
2021/06/11 03:22:37;;;;;;;5.78;4.18;;;;;;;28.36;29.78;94347.53;5017687;28;20432;-45
2021/06/11 03:25:31;;;;;;;4.55;3.78;;;;;;;28.48;29.53;94335.50;5031637;28;20042;-45
2021/06/11 03:28:03;;;;;;;5.57;4.03;;;;;;;28.75;29.21;94339.03;5015483;28;20049;-46
2021/06/11 03:30:30;;;;;;;4.07;3.55;;;;;;;28.92;28.93;94347.34;5015833;28;20057;-47
2021/06/11 03:33:09;;;;;;;5.05;3.75;;;;;;;28.68;29.14;94339.13;5031936;28;20053;-45
2021/06/11 03:35:42;;;;;;;7.13;3.83;;;;;;;28.38;29.78;94341.78;5023164;28;20049;-45
2021/06/11 03:38:17;;;;;;;8.25;4.13;;;;;;;28.57;29.79;94338.47;5034972;28;20045;-45
2021/06/11 03:40:47;;;;;;;7.28;4.30;;;;;;;28.55;29.53;94346.94;5035585;28;20049;-45
2021/06/11 03:43:15;;;;;;;5.47;3.80;;;;;;;28.75;29.52;94351.72;5034830;28;20048;-46
2021/06/11 03:45:43;;;;;;;7.05;3.88;;;;;;;29.01;29.46;94344.91;5035175;28;20049;-47
2021/06/11 03:48:15;;;;;;;8.32;3.65;;;;;;;29.12;29.19;94340.13;5034954;28;20464;-46
2021/06/11 03:50:46;;;;;;;5.43;3.90;;;;;;;29.08;29.24;94352.88;5023302;28;20068;-46
2021/06/11 03:53:14;;;;;;;9.82;3.78;;;;;;;29.00;29.56;94354.91;5015278;28;20053;-45
2021/06/11 03:55:46;;;;;;;6.40;3.88;;;;;;;29.31;29.46;94349.50;5031629;28;20053;-45
2021/06/11 03:58:21;;;;;;;5.40;4.05;;;;;;;29.26;29.52;94353.41;5016851;28;20058;-47
2021/06/11 04:00:53;;;;;;;4.78;3.83;;;;;;;29.28;29.67;94351.06;5022250;28;20057;-45
2021/06/11 04:03:20;;;;;;;5.32;3.75;;;;;;;29.21;30.00;94353.88;5015412;28;20056;-45
2021/06/11 04:05:47;;;;;;;5.88;3.90;;;;;;;29.31;29.12;94352.19;5025205;28;20049;-46
2021/06/11 04:08:16;;;;;;;7.93;4.05;;;;;;;29.14;29.61;94349.31;5035510;28;20052;-46
2021/06/11 04:10:57;;;;;;;5.63;3.88;;;;;;;29.08;30.48;94350.19;5024879;28;20460;-45
2021/06/11 04:13:49;;;;;;;6.28;3.92;;;;;;;29.10;30.41;94350.53;5032912;28;20403;-45
2021/06/11 04:16:20;;;;;;;;;;;;;;;29.77;29.53;94344.22;5044102;28;20071;-59
2021/06/11 04:18:48;;;;;;;6.38;3.67;;;;;;;28.94;30.88;94347.69;5017881;28;19920;-56
2021/06/11 04:21:20;;;;;;;4.97;3.40;;;;;;;29.45;29.93;94344.72;5017730;28;20053;-54
2021/06/11 04:23:48;;;;;;;9.15;3.85;;;;;;;29.37;29.75;94345.94;5018543;28;20485;-56
2021/06/11 04:26:18;;;;;;;11.45;3.80;;;;;;;29.72;29.81;94349.31;5032370;28;20041;-44
2021/06/11 04:28:46;;;;;;;5.93;3.75;;;;;;;29.35;30.02;94350.97;5030530;28;20045;-46
2021/06/11 04:31:13;;;;;;;4.63;3.85;;;;;;;29.60;30.13;94357.94;5033261;28;20057;-64
2021/06/11 04:33:40;;;;;;;7.38;3.80;;;;;;;29.63;29.57;94357.13;5031093;28;20053;-55
2021/06/11 04:36:09;;;;;;;5.07;4.47;;;;;;;29.86;29.12;94354.47;5015142;28;20042;-46
2021/06/11 04:38:56;;;;;;;6.70;3.97;;;;;;;30.13;29.42;94359.06;5015518;28;20054;-44
2021/06/11 04:41:24;;;;;;;4.75;3.90;;;;;;;30.08;29.31;94361.06;5021871;28;20045;-54
2021/06/11 04:43:51;;;;;;;9.02;4.20;;;;;;;30.15;29.13;94356.72;5014959;28;20464;-58
2021/06/11 04:46:19;;;;;;;5.50;3.88;;;;;;;30.37;29.19;94360.56;5017453;28;20042;-54
2021/06/11 04:48:46;;;;;;;5.82;3.72;;;;;;;29.98;29.86;94351.19;5034880;28;20060;-53
2021/06/11 04:51:13;;;;;;;5.18;3.40;;;;;;;30.73;28.72;94351.84;5021680;28;20385;-51
2021/06/11 04:53:41;;;;;;;5.05;3.92;;;;;;;30.33;28.97;94359.84;5032076;28;20049;-53
2021/06/11 04:56:08;;;;;;;6.32;4.03;;;;;;;29.77;29.79;94365.00;5018783;28;20464;-52
2021/06/11 04:58:40;;;;;;;4.63;3.75;;;;;;;30.36;28.93;94369.81;5034644;28;20053;-55
2021/06/11 05:01:09;;;;;;;8.93;3.90;;;;;;;30.64;28.58;94363.16;5020876;28;20457;-53
2021/06/11 05:03:36;;;;;;;9.23;4.53;;;;;;;30.61;28.64;94358.59;5014751;28;20045;-53
2021/06/11 05:06:04;;;;;;;6.32;3.53;;;;;;;30.57;28.50;94364.03;5014474;28;20041;-52
2021/06/11 05:08:32;;;;;;;6.05;3.55;;;;;;;30.89;28.28;94358.03;5014852;28;20050;-54
2021/06/11 05:11:01;;;;;;;7.05;3.78;;;;;;;30.97;28.04;94361.38;5014321;28;20377;-55
2021/06/11 05:13:28;;;;;;;5.05;3.65;;;;;;;31.42;27.64;94366.22;5023117;28;20445;-52
2021/06/11 05:15:55;;;;;;;6.28;3.92;;;;;;;31.13;27.91;94366.81;5015002;28;20054;-55
2021/06/11 05:18:26;;;;;;;5.15;3.33;;;;;;;31.40;27.76;94369.34;5014951;28;20053;-52
2021/06/11 05:20:54;;;;;;;8.05;3.90;;;;;;;31.27;27.93;94366.56;5018263;28;20379;-52
2021/06/11 05:23:21;;;;;;;5.55;3.70;;;;;;;31.53;28.33;94362.13;5034168;28;20487;-53
2021/06/11 05:25:49;;;;;;;6.82;4.05;;;;;;;31.98;26.95;94364.16;5015766;28;20372;-52
2021/06/11 05:28:17;;;;;;;5.93;3.55;;;;;;;31.74;28.09;94371.69;5014593;28;20125;-53
2021/06/11 05:30:44;;;;;;;6.65;4.10;;;;;;;31.69;28.10;94361.34;5016192;28;20060;-52
2021/06/11 05:33:11;;;;;;;5.00;3.38;;;;;;;31.61;26.99;94373.53;5034678;28;20045;-54
2021/06/11 05:35:38;;;;;;;4.88;3.60;;;;;;;31.78;27.08;94372.38;5033843;28;20369;-51
2021/06/11 05:38:05;;;;;;;3.65;3.28;;;;;;;31.95;26.58;94369.66;5034214;28;20052;-54
2021/06/11 05:40:35;;;;;;;4.40;3.38;;;;;;;32.36;26.75;94379.88;5026313;28;20046;-54
2021/06/11 05:43:02;;;;;;;3.78;3.35;;;;;;;32.25;26.30;94374.72;5031482;28;20361;-52
2021/06/11 05:45:30;;;;;;;4.13;3.72;;;;;;;31.89;26.89;94367.47;5024136;28;20048;-55
2021/06/11 05:47:59;;;;;;;5.35;3.45;;;;;;;31.93;26.71;94382.84;5038455;28;20045;-53
2021/06/11 05:50:30;;;;;;;6.65;3.10;;;;;;;32.77;25.83;94385.34;5031784;28;20061;-52
2021/06/11 05:52:57;;;;;;;3.43;2.97;;;;;;;33.14;24.35;94385.91;5018021;28;20042;-55
2021/06/11 05:55:25;;;;;;;3.97;2.90;;;;;;;33.11;24.39;94386.78;5018091;28;20053;-53
2021/06/11 05:57:54;;;;;;;3.80;2.97;;;;;;;33.60;24.02;94394.66;5020959;28;20072;-54
2021/06/11 06:00:23;;;;;;;3.88;2.85;;;;;;;33.27;24.34;94386.69;5032104;28;20061;-58
2021/06/11 06:02:51;;;;;;;7.25;2.80;;;;;;;33.33;24.33;94387.72;5018681;28;20056;-54
2021/06/11 06:05:18;;;;;;;3.20;2.97;;;;;;;33.24;24.13;94384.84;5015612;28;20052;-52
2021/06/11 06:07:45;;;;;;;3.58;2.70;;;;;;;33.50;24.23;94396.50;5018103;28;20048;-54
2021/06/11 06:10:24;;;;;;;3.80;3.03;;;;;;;33.60;24.27;94394.66;5024694;28;20451;-60
2021/06/11 06:12:51;;;;;;;3.45;2.80;;;;;;;33.37;24.17;94385.66;5019943;28;20068;-54
2021/06/11 06:15:19;;;;;;;3.05;2.75;;;;;;;33.62;24.52;94387.63;5017566;28;20471;-53
2021/06/11 06:17:46;;;;;;;3.28;2.65;;;;;;;34.55;23.30;94381.97;5031204;28;20049;-52
2021/06/11 06:20:20;;;;;;;4.32;3.03;;;;;;;34.20;23.43;94387.38;5038724;28;20332;-56
2021/06/11 06:22:49;;;;;;;3.20;2.90;;;;;;;33.99;23.38;94382.63;5019977;28;20046;-53
2021/06/11 06:25:17;;;;;;;4.25;2.40;;;;;;;34.29;23.15;94390.16;5017541;28;20053;-54
2021/06/11 06:27:44;;;;;;;4.22;2.70;;;;;;;34.15;23.40;94385.22;5017605;28;20069;-54
2021/06/11 06:30:14;;;;;;;4.13;2.80;;;;;;;34.82;22.28;94387.59;5017916;28;20053;-56
2021/06/11 06:32:42;;;;;;;3.60;2.88;;;;;;;34.65;23.45;94389.00;5033690;28;20049;-55
2021/06/11 06:35:11;;;;;;;5.55;2.75;;;;;;;34.33;23.26;94396.22;5037100;28;20395;-53
2021/06/11 06:37:38;;;;;;;3.00;2.60;;;;;;;34.72;22.25;94388.75;5037161;28;20460;-55
2021/06/11 06:40:07;;;;;;;3.65;2.50;;;;;;;34.49;22.37;94381.78;5036216;28;20053;-55
2021/06/11 06:42:34;;;;;;;8.75;2.75;;;;;;;34.65;22.25;94377.38;5021369;28;20046;-54
2021/06/11 06:45:05;;;;;;;3.65;2.65;;;;;;;34.71;22.10;94383.75;5017431;28;20372;-55
2021/06/11 06:47:33;;;;;;;6.30;2.50;;;;;;;34.97;21.79;94381.69;5017195;28;20050;-58
2021/06/11 06:50:00;;;;;;;3.63;2.72;;;;;;;35.07;22.04;94377.84;5017679;28;20053;-53
2021/06/11 06:52:27;;;;;;;4.82;2.90;;;;;;;35.59;20.88;94381.75;5016928;28;20045;-54
2021/06/11 06:54:54;;;;;;;3.17;2.70;;;;;;;35.15;21.43;94387.25;5014850;28;20057;-54
2021/06/11 06:57:21;;;;;;;2.60;2.40;;;;;;;34.53;22.03;94384.34;5017236;28;20065;-55
2021/06/11 06:59:49;;;;;;;3.92;2.50;;;;;;;35.73;20.95;94390.13;5017137;28;20056;-54
2021/06/11 07:02:16;;;;;;;3.88;2.42;;;;;;;35.42;21.13;94384.72;5017231;28;20053;-53
2021/06/11 07:04:43;;;;;;;4.78;2.65;;;;;;;35.13;21.31;94384.97;5017451;28;20049;-55
2021/06/11 07:07:13;;;;;;;4.85;2.60;;;;;;;35.43;21.95;94386.22;5023192;28;20042;-53
2021/06/11 07:09:40;;;;;;;4.22;2.75;;;;;;;35.88;21.08;94379.47;5026138;28;20053;-53
2021/06/11 07:12:08;;;;;;;3.20;2.90;;;;;;;35.76;20.90;94385.75;5018928;28;20061;-53
2021/06/11 07:14:36;;;;;;;4.20;2.80;;;;;;;36.18;21.85;94377.13;5017030;28;20056;-54
2021/06/11 07:17:06;;;;;;;3.05;2.63;;;;;;;35.68;20.98;94385.28;5016959;28;20054;-54
2021/06/11 07:19:33;;;;;;;3.88;2.50;;;;;;;36.30;20.28;94385.19;5016814;28;20049;-54
2021/06/11 07:22:03;;;;;;;3.28;2.40;;;;;;;36.35;20.90;94370.22;5014959;28;20462;-56
2021/06/11 07:24:31;;;;;;;2.67;2.35;;;;;;;36.13;20.31;94375.75;5016466;28;20054;-55
2021/06/11 07:27:00;;;;;;;4.90;2.53;;;;;;;35.85;20.88;94374.91;5016685;28;20050;-55
2021/06/11 07:29:27;;;;;;;3.65;2.42;;;;;;;36.45;19.96;94371.75;5016401;28;20372;-61
2021/06/11 07:31:55;;;;;;;3.10;2.70;;;;;;;36.38;20.83;94369.28;5017153;28;20073;-55
2021/06/11 07:34:22;;;;;;;2.95;2.65;;;;;;;36.79;19.80;94364.50;5016439;28;20400;-55
2021/06/11 07:36:49;;;;;;;3.25;2.50;;;;;;;36.70;20.12;94368.72;5016355;28;20477;-54
2021/06/11 07:39:17;;;;;;;3.38;2.60;;;;;;;36.70;20.08;94368.72;5016293;28;20058;-53
2021/06/11 07:41:46;;;;;;;3.75;2.70;;;;;;;37.13;19.98;94366.84;5017774;28;20808;-55
2021/06/11 07:44:13;;;;;;;3.13;2.83;;;;;;;36.40;20.38;94361.44;5028578;28;20072;-54
2021/06/11 07:46:40;;;;;;;3.10;2.80;;;;;;;36.55;20.50;94375.97;5035220;28;20048;-54
2021/06/11 07:49:07;;;;;;;9.85;3.17;;;;;;;35.92;21.29;94371.94;5036057;28;20049;-54
2021/06/11 07:51:34;;;;;;;5.00;2.80;;;;;;;36.49;20.17;94372.34;5030909;28;20380;-54
2021/06/11 07:54:01;;;;;;;5.82;3.17;;;;;;;36.50;20.65;94365.69;5016113;28;20051;-55
2021/06/11 07:56:28;;;;;;;4.72;2.80;;;;;;;35.91;20.70;94373.13;5016145;28;20433;-55
2021/06/11 07:58:55;;;;;;;6.35;2.83;;;;;;;35.92;20.57;94371.94;5016287;28;20069;-55
2021/06/11 08:01:24;;;;;;;4.22;2.80;;;;;;;36.22;20.20;94362.16;5024295;28;20045;-53
2021/06/11 08:03:52;;;;;;;2.70;2.50;;;;;;;36.11;20.74;94362.59;5015925;28;20053;-54
2021/06/11 08:06:19;;;;;;;5.88;2.65;;;;;;;35.61;20.49;94363.78;5032441;28;20052;-54
2021/06/11 08:08:46;;;;;;;5.88;2.40;;;;;;;36.01;19.94;94357.59;5035601;28;20042;-54
2021/06/11 08:11:13;;;;;;;5.68;2.78;;;;;;;35.96;20.67;94355.47;5027169;28;20499;-54
2021/06/11 08:13:41;;;;;;;2.72;2.53;;;;;;;36.12;20.37;94364.09;5014901;28;20050;-55
2021/06/11 08:16:08;;;;;;;4.97;2.60;;;;;;;36.47;20.22;94360.41;5016158;28;20045;-54
2021/06/11 08:18:35;;;;;;;3.47;2.45;;;;;;;36.38;20.27;94361.13;5015824;28;20053;-56
2021/06/11 08:21:04;;;;;;;4.15;2.80;;;;;;;35.91;20.38;94364.97;5035247;28;20049;-60
2021/06/11 08:23:31;;;;;;;5.45;2.60;;;;;;;37.11;19.17;94363.84;5033923;28;20041;-56
2021/06/11 08:25:58;;;;;;;4.32;2.70;;;;;;;36.36;19.96;94361.59;5015912;28;20452;-67
2021/06/11 08:28:25;;;;;;;4.95;2.83;;;;;;;36.50;19.86;94360.25;5035361;28;20060;-54
2021/06/11 08:30:52;;;;;;;2.72;2.45;;;;;;;36.21;20.18;94351.72;5035265;28;20061;-54
2021/06/11 08:33:20;;;;;;;4.07;2.60;;;;;;;36.44;20.13;94362.06;5017449;28;20046;-56
2021/06/11 08:35:47;;;;;;;5.40;2.75;;;;;;;37.02;19.09;94361.13;5015105;28;20053;-54
2021/06/11 08:38:14;;;;;;;2.75;2.47;;;;;;;36.78;19.88;94352.06;5014563;28;20449;-55
2021/06/11 08:40:41;;;;;;;2.88;2.55;;;;;;;36.47;20.29;94350.28;5015326;28;20061;-54
2021/06/11 08:43:09;;;;;;;3.03;2.22;;;;;;;37.13;18.60;94344.28;5013945;28;20731;-54
2021/06/11 08:45:36;;;;;;;8.48;2.63;;;;;;;36.75;19.85;94353.72;5015123;28;20053;-57
2021/06/11 08:48:03;;;;;;;3.17;2.50;;;;;;;37.00;19.11;94341.78;5015430;28;20364;-55
2021/06/11 08:50:32;;;;;;;3.30;2.67;;;;;;;36.98;19.60;94336.03;5014351;28;20046;-55
2021/06/11 08:53:00;;;;;;;3.38;2.30;;;;;;;37.81;19.04;94341.97;5014990;28;20054;-56
2021/06/11 08:55:28;;;;;;;3.13;2.53;;;;;;;37.67;19.41;94332.47;5016791;28;20445;-56
2021/06/11 08:57:55;;;;;;;2.50;2.30;;;;;;;37.44;18.60;94330.44;5015092;28;20049;-55
2021/06/11 09:00:22;;;;;;;5.18;2.20;;;;;;;37.68;18.73;94328.50;5015272;28;20416;-54
2021/06/11 09:03:12;;;;;;;2.97;2.42;;;;;;;37.47;18.31;94326.78;5014578;28;20080;-53
2021/06/11 09:05:44;;;;;;;4.10;2.70;;;;;;;36.60;19.06;94329.06;5049946;28;20468;-57
2021/06/11 09:08:20;;;;;;;2.65;2.10;;;;;;;37.64;18.06;94327.94;5034744;28;20068;-59
2021/06/11 09:10:50;;;;;;;3.03;2.13;;;;;;;37.56;17.55;94326.75;5029176;28;20345;-56
2021/06/11 09:13:28;;;;;;;3.13;2.42;;;;;;;37.53;18.11;94327.69;5030077;28;20064;-55
2021/06/11 09:16:16;;;;;;;4.03;2.90;;;;;;;38.50;17.15;94325.28;5017512;28;20076;-55
2021/06/11 09:18:45;;;;;;;2.67;2.30;;;;;;;38.51;17.55;94329.53;5016322;28;20053;-58
2021/06/11 09:21:33;;;;;;;2.75;2.53;;;;;;;37.86;17.51;94325.72;5034678;28;20052;-55
2021/06/11 09:24:22;;;;;;;4.50;2.00;;;;;;;38.45;16.96;94334.13;5014734;28;20050;-54
2021/06/11 09:27:04;;;;;;;2.80;2.50;;;;;;;37.87;17.75;94329.97;5014940;28;20077;-53
2021/06/11 09:29:35;;;;;;;3.33;2.60;;;;;;;37.84;17.27;94319.97;5023803;28;20057;-58
2021/06/11 09:32:22;;;;;;;2.50;2.28;;;;;;;37.07;17.59;94318.91;5029075;28;20057;-56
2021/06/11 09:34:55;;;;;;;2.55;2.30;;;;;;;37.59;16.50;94320.38;5017320;28;20042;-55
2021/06/11 09:37:29;;;;;;;2.88;2.40;;;;;;;37.50;17.53;94306.81;5014419;28;20365;-58
2021/06/11 09:40:03;;;;;;;6.55;2.80;;;;;;;37.92;17.26;94325.84;5017972;28;20045;-54
2021/06/11 09:42:33;;;;;;;3.08;2.50;;;;;;;36.99;17.20;94310.28;5030073;28;20364;-57
2021/06/11 09:45:08;;;;;;;4.07;2.30;;;;;;;37.19;17.80;94310.50;5033263;28;20053;-56
2021/06/11 09:47:47;;;;;;;2.55;2.22;;;;;;;37.02;17.06;94303.94;5013579;28;20041;-55
2021/06/11 09:50:16;;;;;;;2.42;2.22;;;;;;;36.86;16.77;94299.56;5054275;28;20048;-55
2021/06/11 09:52:54;;;;;;;3.17;2.28;;;;;;;36.89;17.57;94292.44;5032172;28;20476;-55
2021/06/11 09:55:27;;;;;;;3.42;2.55;;;;;;;37.35;18.15;94293.84;5014384;28;20342;-57
2021/06/11 09:58:11;;;;;;;4.72;2.55;;;;;;;37.91;17.49;94292.34;5018245;28;20053;-58
2021/06/11 10:00:47;;;;;;;10.93;3.10;;;;;;;36.69;18.38;94288.22;5034271;28;20494;-54
2021/06/11 10:03:19;;;;;;;3.70;2.20;;;;;;;37.04;18.00;94298.78;5020060;28;20050;-55
2021/06/11 10:05:48;;;;;;;4.53;2.30;;;;;;;37.30;17.19;94288.25;5014008;28;20050;-53
2021/06/11 10:08:16;;;;;;;2.47;2.10;;;;;;;37.51;17.32;94281.81;5014297;28;20440;-56
2021/06/11 10:10:45;;;;;;;2.55;2.35;;;;;;;38.41;15.98;94278.97;5019292;28;20049;-54
2021/06/11 10:13:14;;;;;;;2.25;2.00;;;;;;;38.25;16.83;94282.88;5020375;28;20396;-54
2021/06/11 10:15:42;;;;;;;5.25;2.35;;;;;;;38.79;16.13;94277.44;5019354;28;20337;-59
2021/06/11 10:18:10;;;;;;;2.15;1.95;;;;;;;38.35;15.76;94274.63;5033906;28;20451;-55
2021/06/11 10:20:38;;;;;;;8.88;2.50;;;;;;;38.36;15.40;94276.88;5034026;28;20060;-55
2021/06/11 10:23:08;;;;;;;6.72;6.00;;;;;;;38.47;15.75;94268.88;5021404;28;20353;-56
2021/06/11 10:25:35;;;;;;;5.10;4.60;;;;;;;38.43;15.84;94265.59;5020139;28;20053;-54
2021/06/11 10:28:03;;;;;;;11.70;10.50;;;;;;;38.82;16.01;94262.84;5015052;28;20360;-56
2021/06/11 10:30:31;;;;;;;6.85;5.00;;;;;;;38.54;16.06;94254.88;5016663;28;20065;-55
2021/06/11 10:32:59;;;;;;;3.13;2.40;;;;;;;38.75;16.23;94263.19;5051101;28;20049;-55
2021/06/11 10:35:44;;;;;;;5.05;2.45;;;;;;;39.02;15.32;94256.66;5034367;28;20064;-54
2021/06/11 10:38:32;;;;;;;8.27;5.18;;;;;;;38.75;15.88;94257.72;5017587;28;20054;-55
2021/06/11 10:41:05;;;;;;;3.15;2.65;;;;;;;38.53;16.12;94250.66;5028511;28;20050;-55
2021/06/11 10:43:38;;;;;;;3.25;2.72;;;;;;;38.65;15.56;94259.06;5021941;28;20038;-55
2021/06/11 10:46:20;;;;;;;2.97;2.10;;;;;;;38.77;14.69;94260.72;5017456;28;20365;-56
2021/06/11 10:48:56;;;;;;;2.97;2.13;;;;;;;38.80;15.26;94262.56;5017470;28;20471;-58
2021/06/11 10:51:50;;;;;;;3.08;2.08;;;;;;;38.33;15.18;94256.00;5017365;28;20046;-60
2021/06/11 10:54:23;;;;;;;2.50;2.10;;;;;;;38.67;15.64;94256.59;5017810;28;20042;-54
2021/06/11 10:57:11;;;;;;;2.40;2.20;;;;;;;38.58;15.17;94259.41;5017211;28;20050;-59
2021/06/11 10:59:48;;;;;;;2.22;1.95;;;;;;;38.85;15.21;94265.38;5009894;28;20053;-60
2021/06/11 11:02:18;;;;;;;5.53;2.80;;;;;;;38.10;16.14;94265.69;5017230;28;20046;-56
2021/06/11 11:04:50;;;;;;;4.50;2.58;;;;;;;38.18;16.41;94277.03;5016316;28;20049;-55
2021/06/11 11:07:23;;;;;;;2.97;2.17;;;;;;;37.40;16.39;94281.53;5016673;28;20046;-61
2021/06/11 11:09:57;;;;;;;4.20;2.25;;;;;;;37.65;15.93;94285.81;5028928;28;20049;-55
2021/06/11 11:12:30;;;;;;;3.10;1.80;;;;;;;37.08;16.15;94285.00;5016693;28;20046;-55
2021/06/11 11:14:59;;;;;;;6.15;1.90;;;;;;;37.32;14.92;94291.28;5016781;28;20076;-58
2021/06/11 11:17:27;;;;;;;3.05;1.70;;;;;;;37.07;15.30;94289.69;5018689;28;20465;-53
2021/06/11 11:19:58;;;;;;;2.83;1.80;;;;;;;37.41;15.09;94291.22;5036767;28;20049;-57
2021/06/11 11:22:37;;;;;;;3.08;1.75;;;;;;;37.26;15.58;94306.75;5031364;28;20461;-54
2021/06/11 11:25:14;;;;;;;4.38;1.90;;;;;;;36.89;15.47;94295.94;5017590;28;20049;-61
2021/06/11 11:27:46;;;;;;;4.30;1.77;;;;;;;36.98;14.95;94301.38;5036749;28;20432;-56
2021/06/11 11:30:14;;;;;;;6.47;1.65;;;;;;;36.84;15.77;94312.13;5036872;28;20053;-58
2021/06/11 11:32:41;;;;;;;6.32;1.90;;;;;;;37.00;15.28;94314.53;5036045;28;20056;-56
2021/06/11 11:35:09;;;;;;;3.67;1.95;;;;;;;36.88;15.24;94305.31;5035234;28;20053;-54
2021/06/11 11:37:36;;;;;;;3.28;1.77;;;;;;;36.67;15.84;94293.38;5016263;28;20077;-54
2021/06/11 11:40:04;;;;;;;2.92;1.67;;;;;;;36.78;15.70;94290.22;5034689;28;20379;-55
2021/06/11 11:42:31;;;;;;;3.95;1.52;;;;;;;36.55;15.96;94299.00;5016662;28;20460;-55
2021/06/11 11:44:58;;;;;;;4.15;1.85;;;;;;;36.34;16.57;94287.06;5016451;28;20050;-56
2021/06/11 11:47:25;;;;;;;11.55;9.43;;;;;;;36.58;15.95;94284.47;5016054;28;20045;-57
2021/06/11 11:49:52;;;;;;;10.18;6.60;;;;;;;36.05;16.69;94285.50;5016651;28;20057;-55